sensor_id;sensor_type;location;lat;lon;timestamp;pressure;altitude;pressure_sealevel;temperature;humidity
12360;BME280;6244;51.460;7.090;2023-05-22T00:00:06;100459.16;;;18.87;70.32
12360;BME280;6244;51.460;7.090;2023-05-22T00:05:05;100449.06;;;18.91;69.94
12360;BME280;6244;51.460;7.090;2023-05-22T00:10:02;100442.88;;;18.81;70.33
12360;BME280;6244;51.460;7.090;2023-05-22T00:14:59;100445.56;;;18.90;70.30
12360;BME280;6244;51.460;7.090;2023-05-22T00:19:55;100442.22;;;18.88;70.05
12360;BME280;6244;51.460;7.090;2023-05-22T00:25:04;100431.97;;;18.84;69.96
12360;BME280;6244;51.460;7.090;2023-05-22T00:30:01;100430.28;;;18.83;69.82
12360;BME280;6244;51.460;7.090;2023-05-22T00:34:58;100425.22;;;18.70;70.31
12360;BME280;6244;51.460;7.090;2023-05-22T00:39:54;100417.69;;;18.75;69.95
12360;BME280;6244;51.460;7.090;2023-05-22T00:44:52;100422.03;;;18.76;69.87
12360;BME280;6244;51.460;7.090;2023-05-22T00:49:48;100427.06;;;18.79;69.78
12360;BME280;6244;51.460;7.090;2023-05-22T00:54:45;100424.69;;;18.76;69.79
12360;BME280;6244;51.460;7.090;2023-05-22T00:59:42;100422.44;;;18.71;69.76
12360;BME280;6244;51.460;7.090;2023-05-22T01:04:41;100423.13;;;18.64;70.13
12360;BME280;6244;51.460;7.090;2023-05-22T01:09:39;100422.06;;;18.55;70.33
12360;BME280;6244;51.460;7.090;2023-05-22T01:14:42;100419.00;;;18.50;70.46
12360;BME280;6244;51.460;7.090;2023-05-22T01:19:58;100416.34;;;18.50;70.75
12360;BME280;6244;51.460;7.090;2023-05-22T01:25:12;100415.13;;;18.33;71.11
12360;BME280;6244;51.460;7.090;2023-05-22T01:30:23;100424.31;;;18.19;71.65
12360;BME280;6244;51.460;7.090;2023-05-22T01:35:25;100415.69;;;17.76;73.37
12360;BME280;6244;51.460;7.090;2023-05-22T01:40:22;100422.50;;;17.89;73.80
12360;BME280;6244;51.460;7.090;2023-05-22T01:45:20;100421.09;;;18.16;72.73
12360;BME280;6244;51.460;7.090;2023-05-22T01:50:17;100415.00;;;18.25;71.93
12360;BME280;6244;51.460;7.090;2023-05-22T01:55:18;100415.13;;;18.24;71.49
12360;BME280;6244;51.460;7.090;2023-05-22T02:00:16;100404.88;;;18.19;71.20
12360;BME280;6244;51.460;7.090;2023-05-22T02:05:17;100404.31;;;18.15;71.14
12360;BME280;6244;51.460;7.090;2023-05-22T02:10:16;100401.19;;;18.10;70.89
12360;BME280;6244;51.460;7.090;2023-05-22T02:15:13;100398.38;;;18.02;71.21
12360;BME280;6244;51.460;7.090;2023-05-22T02:20:12;100394.00;;;17.92;71.55
12360;BME280;6244;51.460;7.090;2023-05-22T02:25:10;100390.72;;;17.78;72.35
12360;BME280;6244;51.460;7.090;2023-05-22T02:30:10;100384.88;;;17.64;72.27
12360;BME280;6244;51.460;7.090;2023-05-22T02:35:08;100390.88;;;17.66;72.62
12360;BME280;6244;51.460;7.090;2023-05-22T02:40:05;100382.84;;;17.56;72.72
12360;BME280;6244;51.460;7.090;2023-05-22T02:45:03;100376.50;;;17.68;72.54
12360;BME280;6244;51.460;7.090;2023-05-22T02:50:01;100382.47;;;17.81;72.08
12360;BME280;6244;51.460;7.090;2023-05-22T02:54:57;100369.75;;;17.75;72.02
12360;BME280;6244;51.460;7.090;2023-05-22T02:59:54;100364.03;;;17.80;72.06
12360;BME280;6244;51.460;7.090;2023-05-22T03:04:51;100356.63;;;17.74;72.07
12360;BME280;6244;51.460;7.090;2023-05-22T03:09:49;100354.19;;;17.50;72.15
12360;BME280;6244;51.460;7.090;2023-05-22T03:14:46;100354.22;;;17.59;72.60
12360;BME280;6244;51.460;7.090;2023-05-22T03:19:42;100348.91;;;17.50;72.58
12360;BME280;6244;51.460;7.090;2023-05-22T03:24:39;100342.47;;;17.52;72.56
12360;BME280;6244;51.460;7.090;2023-05-22T03:29:37;100342.75;;;17.49;72.60
12360;BME280;6244;51.460;7.090;2023-05-22T03:34:33;100342.84;;;17.48;72.51
12360;BME280;6244;51.460;7.090;2023-05-22T03:39:30;100348.22;;;17.57;72.64
12360;BME280;6244;51.460;7.090;2023-05-22T03:44:26;100355.81;;;17.62;72.61
12360;BME280;6244;51.460;7.090;2023-05-22T03:49:24;100358.69;;;17.59;72.57
12360;BME280;6244;51.460;7.090;2023-05-22T03:54:21;100358.91;;;17.46;73.05
12360;BME280;6244;51.460;7.090;2023-05-22T03:59:17;100355.88;;;17.51;72.91
12360;BME280;6244;51.460;7.090;2023-05-22T04:04:14;100343.69;;;17.48;72.93
12360;BME280;6244;51.460;7.090;2023-05-22T04:09:12;100350.88;;;17.57;73.08
12360;BME280;6244;51.460;7.090;2023-05-22T04:14:09;100357.50;;;17.63;72.89
12360;BME280;6244;51.460;7.090;2023-05-22T04:19:05;100367.38;;;17.61;72.83
12360;BME280;6244;51.460;7.090;2023-05-22T04:24:04;100357.69;;;17.50;73.04
12360;BME280;6244;51.460;7.090;2023-05-22T04:29:05;100356.84;;;17.50;73.58
12360;BME280;6244;51.460;7.090;2023-05-22T04:34:05;100356.25;;;17.46;74.03
12360;BME280;6244;51.460;7.090;2023-05-22T04:39:01;100370.50;;;17.24;74.48
12360;BME280;6244;51.460;7.090;2023-05-22T04:43:58;100367.75;;;17.15;75.52
12360;BME280;6244;51.460;7.090;2023-05-22T04:48:59;100362.63;;;17.23;73.81
12360;BME280;6244;51.460;7.090;2023-05-22T04:53:56;100358.56;;;17.19;74.91
12360;BME280;6244;51.460;7.090;2023-05-22T04:58:52;100367.38;;;16.87;75.56
12360;BME280;6244;51.460;7.090;2023-05-22T05:03:49;100366.16;;;16.91;76.39
12360;BME280;6244;51.460;7.090;2023-05-22T05:08:47;100365.56;;;17.20;75.33
12360;BME280;6244;51.460;7.090;2023-05-22T05:13:44;100372.31;;;17.24;75.10
12360;BME280;6244;51.460;7.090;2023-05-22T05:18:40;100371.91;;;16.53;77.71
12360;BME280;6244;51.460;7.090;2023-05-22T05:23:37;100374.41;;;16.66;78.09
12360;BME280;6244;51.460;7.090;2023-05-22T05:28:35;100373.44;;;16.67;78.33
12360;BME280;6244;51.460;7.090;2023-05-22T05:33:32;100380.88;;;16.62;78.96
12360;BME280;6244;51.460;7.090;2023-05-22T05:38:28;100381.63;;;17.07;78.59
12360;BME280;6244;51.460;7.090;2023-05-22T05:43:25;100386.00;;;17.29;77.44
12360;BME280;6244;51.460;7.090;2023-05-22T05:48:23;100389.19;;;17.44;76.87
12360;BME280;6244;51.460;7.090;2023-05-22T05:53:20;100390.41;;;17.60;76.63
12360;BME280;6244;51.460;7.090;2023-05-22T05:58:16;100397.44;;;17.82;75.57
12360;BME280;6244;51.460;7.090;2023-05-22T06:03:13;100401.53;;;17.86;75.37
12360;BME280;6244;51.460;7.090;2023-05-22T06:08:11;100391.41;;;18.01;75.61
12360;BME280;6244;51.460;7.090;2023-05-22T06:13:07;100386.47;;;17.97;75.49
12360;BME280;6244;51.460;7.090;2023-05-22T06:18:04;100390.31;;;17.83;76.09
12360;BME280;6244;51.460;7.090;2023-05-22T06:23:01;100396.00;;;17.99;75.64
12360;BME280;6244;51.460;7.090;2023-05-22T06:27:58;100395.88;;;18.01;75.14
12360;BME280;6244;51.460;7.090;2023-05-22T06:32:56;100399.44;;;18.20;75.58
12360;BME280;6244;51.460;7.090;2023-05-22T06:37:52;100411.16;;;18.58;74.39
12360;BME280;6244;51.460;7.090;2023-05-22T06:42:49;100399.63;;;18.29;73.96
12360;BME280;6244;51.460;7.090;2023-05-22T06:47:51;100414.28;;;18.23;73.67
12360;BME280;6244;51.460;7.090;2023-05-22T06:52:47;100418.78;;;18.32;73.71
12360;BME280;6244;51.460;7.090;2023-05-22T06:57:44;100415.75;;;18.37;73.62
12360;BME280;6244;51.460;7.090;2023-05-22T07:02:40;100421.75;;;18.79;73.27
12360;BME280;6244;51.460;7.090;2023-05-22T07:07:38;100422.75;;;18.97;71.57
12360;BME280;6244;51.460;7.090;2023-05-22T07:12:35;100415.50;;;19.19;71.42
12360;BME280;6244;51.460;7.090;2023-05-22T07:17:32;100419.84;;;19.39;70.01
12360;BME280;6244;51.460;7.090;2023-05-22T07:22:28;100416.66;;;19.55;69.54
12360;BME280;6244;51.460;7.090;2023-05-22T07:27:26;100426.75;;;19.61;69.14
12360;BME280;6244;51.460;7.090;2023-05-22T07:32:23;100422.06;;;19.82;68.89
12360;BME280;6244;51.460;7.090;2023-05-22T07:37:19;100433.66;;;20.10;67.48
12360;BME280;6244;51.460;7.090;2023-05-22T07:42:16;100425.69;;;20.38;66.95
12360;BME280;6244;51.460;7.090;2023-05-22T07:47:14;100423.72;;;20.67;65.86
12360;BME280;6244;51.460;7.090;2023-05-22T07:52:11;100426.31;;;21.04;65.57
12360;BME280;6244;51.460;7.090;2023-05-22T07:57:07;100428.91;;;20.96;64.20
12360;BME280;6244;51.460;7.090;2023-05-22T08:02:06;100423.78;;;21.21;64.84
12360;BME280;6244;51.460;7.090;2023-05-22T08:07:05;100423.53;;;21.59;61.20
12360;BME280;6244;51.460;7.090;2023-05-22T08:12:05;100428.00;;;22.28;59.66
12360;BME280;6244;51.460;7.090;2023-05-22T08:17:02;100429.34;;;23.41;55.98
12360;BME280;6244;51.460;7.090;2023-05-22T08:21:58;100428.56;;;24.29;54.89
12360;BME280;6244;51.460;7.090;2023-05-22T08:26:56;100419.34;;;25.10;52.24
12360;BME280;6244;51.460;7.090;2023-05-22T08:31:54;100422.16;;;25.39;51.38
12360;BME280;6244;51.460;7.090;2023-05-22T08:36:54;100428.31;;;25.25;50.73
12360;BME280;6244;51.460;7.090;2023-05-22T08:41:50;100429.72;;;25.82;51.11
12360;BME280;6244;51.460;7.090;2023-05-22T08:46:50;100423.72;;;26.09;50.32
12360;BME280;6244;51.460;7.090;2023-05-22T08:51:51;100433.13;;;27.08;48.84
12360;BME280;6244;51.460;7.090;2023-05-22T08:56:52;100434.91;;;25.60;51.36
12360;BME280;6244;51.460;7.090;2023-05-22T09:01:50;100435.00;;;26.42;49.27
12360;BME280;6244;51.460;7.090;2023-05-22T09:06:48;100439.06;;;24.94;53.12
12360;BME280;6244;51.460;7.090;2023-05-22T09:11:44;100435.34;;;25.72;51.90
12360;BME280;6244;51.460;7.090;2023-05-22T09:16:45;100439.63;;;24.81;53.65
12360;BME280;6244;51.460;7.090;2023-05-22T09:21:43;100436.44;;;24.39;54.65
12360;BME280;6244;51.460;7.090;2023-05-22T09:26:39;100446.13;;;23.60;57.69
12360;BME280;6244;51.460;7.090;2023-05-22T09:31:40;100430.03;;;24.87;54.01
12360;BME280;6244;51.460;7.090;2023-05-22T09:36:37;100441.91;;;25.46;52.18
12360;BME280;6244;51.460;7.090;2023-05-22T09:41:38;100455.09;;;25.79;51.45
12360;BME280;6244;51.460;7.090;2023-05-22T09:46:39;100451.16;;;24.90;52.85
12360;BME280;6244;51.460;7.090;2023-05-22T09:51:36;100452.16;;;24.89;52.04
12360;BME280;6244;51.460;7.090;2023-05-22T09:56:37;100443.53;;;24.23;54.50
12360;BME280;6244;51.460;7.090;2023-05-22T10:01:37;100448.97;;;24.94;53.08
12360;BME280;6244;51.460;7.090;2023-05-22T10:06:34;100446.81;;;25.43;52.42
12360;BME280;6244;51.460;7.090;2023-05-22T10:11:32;100446.75;;;25.28;51.00
12360;BME280;6244;51.460;7.090;2023-05-22T10:16:31;100452.25;;;25.58;50.43
12360;BME280;6244;51.460;7.090;2023-05-22T10:21:32;100441.34;;;26.26;46.84
12360;BME280;6244;51.460;7.090;2023-05-22T10:26:32;100455.03;;;26.54;49.10
12360;BME280;6244;51.460;7.090;2023-05-22T10:31:37;100442.56;;;26.68;48.07
12360;BME280;6244;51.460;7.090;2023-05-22T10:36:49;100458.81;;;27.68;45.24
12360;BME280;6244;51.460;7.090;2023-05-22T10:41:47;100452.00;;;26.79;45.72
12360;BME280;6244;51.460;7.090;2023-05-22T10:46:48;100438.72;;;27.71;44.33
12360;BME280;6244;51.460;7.090;2023-05-22T10:51:45;100441.06;;;27.59;44.98
12360;BME280;6244;51.460;7.090;2023-05-22T10:56:41;100429.19;;;28.03;43.51
12360;BME280;6244;51.460;7.090;2023-05-22T11:01:38;100436.34;;;27.89;41.54
12360;BME280;6244;51.460;7.090;2023-05-22T11:06:37;100436.41;;;27.68;44.93
12360;BME280;6244;51.460;7.090;2023-05-22T11:11:35;100430.22;;;28.30;42.32
12360;BME280;6244;51.460;7.090;2023-05-22T11:16:31;100430.13;;;28.17;44.28
12360;BME280;6244;51.460;7.090;2023-05-22T11:21:28;100422.81;;;28.11;43.34
12360;BME280;6244;51.460;7.090;2023-05-22T11:26:26;100431.31;;;27.79;41.64
12360;BME280;6244;51.460;7.090;2023-05-22T11:31:23;100420.97;;;27.83;41.34
12360;BME280;6244;51.460;7.090;2023-05-22T11:36:21;100426.50;;;27.75;43.06
12360;BME280;6244;51.460;7.090;2023-05-22T11:41:19;100416.81;;;28.50;41.26
12360;BME280;6244;51.460;7.090;2023-05-22T11:46:16;100411.66;;;27.86;42.68
12360;BME280;6244;51.460;7.090;2023-05-22T11:51:17;100422.22;;;27.87;42.30
12360;BME280;6244;51.460;7.090;2023-05-22T11:56:14;100412.81;;;28.04;41.46
12360;BME280;6244;51.460;7.090;2023-05-22T12:01:17;100410.72;;;27.72;43.21
12360;BME280;6244;51.460;7.090;2023-05-22T12:06:13;100418.03;;;27.35;43.94
12360;BME280;6244;51.460;7.090;2023-05-22T12:11:10;100403.25;;;26.08;46.36
12360;BME280;6244;51.460;7.090;2023-05-22T12:16:18;100396.56;;;25.66;47.94
12360;BME280;6244;51.460;7.090;2023-05-22T12:21:17;100400.44;;;25.64;50.45
12360;BME280;6244;51.460;7.090;2023-05-22T12:26:14;100400.25;;;25.65;49.86
12360;BME280;6244;51.460;7.090;2023-05-22T12:31:20;100396.78;;;25.42;48.40
12360;BME280;6244;51.460;7.090;2023-05-22T12:36:17;100388.16;;;25.32;50.35
12360;BME280;6244;51.460;7.090;2023-05-22T12:41:13;100384.19;;;25.42;49.93
12360;BME280;6244;51.460;7.090;2023-05-22T12:46:10;100395.66;;;25.36;50.14
12360;BME280;6244;51.460;7.090;2023-05-22T12:51:07;100389.41;;;25.21;51.17
12360;BME280;6244;51.460;7.090;2023-05-22T12:56:04;100391.66;;;25.32;50.61
12360;BME280;6244;51.460;7.090;2023-05-22T13:01:01;100391.28;;;25.58;50.75
12360;BME280;6244;51.460;7.090;2023-05-22T13:05:58;100391.72;;;25.85;49.98
12360;BME280;6244;51.460;7.090;2023-05-22T13:10:56;100391.91;;;25.98;49.12
12360;BME280;6244;51.460;7.090;2023-05-22T13:15:52;100394.22;;;25.86;50.71
12360;BME280;6244;51.460;7.090;2023-05-22T13:20:49;100382.84;;;25.61;49.71
12360;BME280;6244;51.460;7.090;2023-05-22T13:25:46;100380.66;;;25.80;52.35
12360;BME280;6244;51.460;7.090;2023-05-22T13:30:43;100372.59;;;25.80;50.28
12360;BME280;6244;51.460;7.090;2023-05-22T13:35:40;100381.44;;;26.03;49.84
12360;BME280;6244;51.460;7.090;2023-05-22T13:40:36;100362.34;;;25.83;49.95
12360;BME280;6244;51.460;7.090;2023-05-22T13:45:33;100367.53;;;25.99;50.55
12360;BME280;6244;51.460;7.090;2023-05-22T13:50:31;100357.13;;;26.26;49.79
12360;BME280;6244;51.460;7.090;2023-05-22T13:55:27;100360.56;;;25.90;49.27
12360;BME280;6244;51.460;7.090;2023-05-22T14:00:24;100364.19;;;25.97;49.15
12360;BME280;6244;51.460;7.090;2023-05-22T14:05:22;100358.44;;;26.00;48.54
12360;BME280;6244;51.460;7.090;2023-05-22T14:10:20;100363.16;;;25.69;50.02
12360;BME280;6244;51.460;7.090;2023-05-22T14:15:17;100360.38;;;25.92;49.49
12360;BME280;6244;51.460;7.090;2023-05-22T14:20:13;100360.94;;;25.72;47.54
12360;BME280;6244;51.460;7.090;2023-05-22T14:25:10;100354.41;;;25.67;49.33
12360;BME280;6244;51.460;7.090;2023-05-22T14:30:09;100355.59;;;25.50;50.17
12360;BME280;6244;51.460;7.090;2023-05-22T14:35:08;100351.03;;;25.73;48.89
12360;BME280;6244;51.460;7.090;2023-05-22T14:40:06;100357.78;;;25.84;47.52
12360;BME280;6244;51.460;7.090;2023-05-22T14:45:03;100348.94;;;25.60;47.07
12360;BME280;6244;51.460;7.090;2023-05-22T14:50:01;100339.47;;;25.64;46.59
12360;BME280;6244;51.460;7.090;2023-05-22T14:54:57;100338.09;;;25.68;48.42
12360;BME280;6244;51.460;7.090;2023-05-22T14:59:53;100345.50;;;25.66;46.90
12360;BME280;6244;51.460;7.090;2023-05-22T15:04:50;100330.56;;;25.64;47.86
12360;BME280;6244;51.460;7.090;2023-05-22T15:09:48;100323.38;;;25.79;45.77
12360;BME280;6244;51.460;7.090;2023-05-22T15:14:44;100323.53;;;25.63;46.39
12360;BME280;6244;51.460;7.090;2023-05-22T15:19:41;100310.75;;;25.65;45.31
12360;BME280;6244;51.460;7.090;2023-05-22T15:24:39;100312.03;;;25.54;45.34
12360;BME280;6244;51.460;7.090;2023-05-22T15:29:39;100312.56;;;25.35;45.84
12360;BME280;6244;51.460;7.090;2023-05-22T15:34:36;100300.91;;;25.05;47.13
12360;BME280;6244;51.460;7.090;2023-05-22T15:39:32;100299.63;;;25.53;43.87
12360;BME280;6244;51.460;7.090;2023-05-22T15:44:29;100312.09;;;25.98;44.83
12360;BME280;6244;51.460;7.090;2023-05-22T15:49:26;100313.91;;;26.13;43.59
12360;BME280;6244;51.460;7.090;2023-05-22T15:54:23;100320.41;;;26.03;42.47
12360;BME280;6244;51.460;7.090;2023-05-22T15:59:20;100319.69;;;26.10;42.94
12360;BME280;6244;51.460;7.090;2023-05-22T16:04:16;100322.75;;;25.92;45.45
12360;BME280;6244;51.460;7.090;2023-05-22T16:09:14;100314.97;;;25.97;46.37
12360;BME280;6244;51.460;7.090;2023-05-22T16:14:12;100322.69;;;25.62;47.92
12360;BME280;6244;51.460;7.090;2023-05-22T16:19:09;100320.63;;;25.87;47.95
12360;BME280;6244;51.460;7.090;2023-05-22T16:24:06;100336.72;;;25.58;48.19
12360;BME280;6244;51.460;7.090;2023-05-22T16:29:06;100332.69;;;24.70;51.29
12360;BME280;6244;51.460;7.090;2023-05-22T16:34:03;100341.31;;;24.57;52.52
12360;BME280;6244;51.460;7.090;2023-05-22T16:39:00;100347.56;;;24.50;52.59
12360;BME280;6244;51.460;7.090;2023-05-22T16:43:57;100360.53;;;24.38;51.01
12360;BME280;6244;51.460;7.090;2023-05-22T16:48:54;100382.97;;;24.29;51.00
12360;BME280;6244;51.460;7.090;2023-05-22T16:53:51;100437.41;;;23.74;59.74
12360;BME280;6244;51.460;7.090;2023-05-22T16:58:48;100425.00;;;22.32;65.88
12360;BME280;6244;51.460;7.090;2023-05-22T17:03:45;100418.63;;;21.98;69.41
12360;BME280;6244;51.460;7.090;2023-05-22T17:08:43;100414.47;;;22.04;71.40
12360;BME280;6244;51.460;7.090;2023-05-22T17:13:39;100411.44;;;21.99;69.39
12360;BME280;6244;51.460;7.090;2023-05-22T17:18:36;100419.78;;;21.96;71.10
12360;BME280;6244;51.460;7.090;2023-05-22T17:23:32;100416.28;;;22.21;69.14
12360;BME280;6244;51.460;7.090;2023-05-22T17:28:32;100421.97;;;22.26;69.06
12360;BME280;6244;51.460;7.090;2023-05-22T17:33:29;100423.78;;;22.60;66.08
12360;BME280;6244;51.460;7.090;2023-05-22T17:38:26;100436.13;;;22.87;68.85
12360;BME280;6244;51.460;7.090;2023-05-22T17:43:22;100443.13;;;22.88;69.00
12360;BME280;6244;51.460;7.090;2023-05-22T17:48:20;100444.56;;;22.74;66.66
12360;BME280;6244;51.460;7.090;2023-05-22T17:53:21;100445.59;;;22.39;66.25
12360;BME280;6244;51.460;7.090;2023-05-22T17:58:18;100456.03;;;21.98;68.01
12360;BME280;6244;51.460;7.090;2023-05-22T18:03:15;100454.47;;;22.14;68.57
12360;BME280;6244;51.460;7.090;2023-05-22T18:08:15;100461.28;;;22.34;67.18
12360;BME280;6244;51.460;7.090;2023-05-22T18:13:12;100470.59;;;22.30;66.38
12360;BME280;6244;51.460;7.090;2023-05-22T18:18:09;100474.34;;;22.11;66.23
12360;BME280;6244;51.460;7.090;2023-05-22T18:23:06;100485.38;;;22.16;65.69
12360;BME280;6244;51.460;7.090;2023-05-22T18:28:04;100489.91;;;21.98;67.07
12360;BME280;6244;51.460;7.090;2023-05-22T18:33:00;100497.25;;;21.96;67.05
12360;BME280;6244;51.460;7.090;2023-05-22T18:37:57;100505.50;;;21.85;67.78
12360;BME280;6244;51.460;7.090;2023-05-22T18:42:54;100509.53;;;21.89;67.38
12360;BME280;6244;51.460;7.090;2023-05-22T18:47:52;100511.50;;;22.05;67.30
12360;BME280;6244;51.460;7.090;2023-05-22T18:52:48;100514.47;;;22.02;67.68
12360;BME280;6244;51.460;7.090;2023-05-22T18:57:45;100526.16;;;21.83;68.35
12360;BME280;6244;51.460;7.090;2023-05-22T19:02:41;100530.56;;;21.84;67.83
12360;BME280;6244;51.460;7.090;2023-05-22T19:07:39;100532.50;;;21.99;68.23
12360;BME280;6244;51.460;7.090;2023-05-22T19:12:36;100536.13;;;22.08;67.97
12360;BME280;6244;51.460;7.090;2023-05-22T19:17:32;100543.75;;;21.85;68.40
12360;BME280;6244;51.460;7.090;2023-05-22T19:22:29;100543.28;;;21.72;68.53
12360;BME280;6244;51.460;7.090;2023-05-22T19:27:27;100546.03;;;21.80;68.19
12360;BME280;6244;51.460;7.090;2023-05-22T19:32:24;100555.66;;;21.73;68.07
12360;BME280;6244;51.460;7.090;2023-05-22T19:37:20;100553.13;;;21.36;68.12
12360;BME280;6244;51.460;7.090;2023-05-22T19:42:16;100568.00;;;21.56;67.52
12360;BME280;6244;51.460;7.090;2023-05-22T19:47:14;100567.16;;;21.38;67.45
12360;BME280;6244;51.460;7.090;2023-05-22T19:52:11;100566.63;;;21.25;67.91
12360;BME280;6244;51.460;7.090;2023-05-22T19:57:07;100574.78;;;21.23;67.97
12360;BME280;6244;51.460;7.090;2023-05-22T20:02:04;100577.03;;;21.28;67.62
12360;BME280;6244;51.460;7.090;2023-05-22T20:07:02;100582.72;;;21.05;67.34
12360;BME280;6244;51.460;7.090;2023-05-22T20:11:59;100593.84;;;21.01;67.19
12360;BME280;6244;51.460;7.090;2023-05-22T20:16:56;100589.22;;;21.03;67.18
12360;BME280;6244;51.460;7.090;2023-05-22T20:21:53;100594.41;;;20.95;67.35
12360;BME280;6244;51.460;7.090;2023-05-22T20:26:53;100612.16;;;20.86;67.19
12360;BME280;6244;51.460;7.090;2023-05-22T20:31:50;100608.38;;;20.79;66.91
12360;BME280;6244;51.460;7.090;2023-05-22T20:36:48;100614.72;;;20.78;66.48
12360;BME280;6244;51.460;7.090;2023-05-22T20:41:47;100616.38;;;20.89;65.54
12360;BME280;6244;51.460;7.090;2023-05-22T20:46:46;100626.91;;;20.80;65.59
12360;BME280;6244;51.460;7.090;2023-05-22T20:51:42;100629.34;;;20.64;65.52
12360;BME280;6244;51.460;7.090;2023-05-22T20:56:39;100642.97;;;20.61;65.54
12360;BME280;6244;51.460;7.090;2023-05-22T21:01:35;100643.13;;;20.60;65.74
12360;BME280;6244;51.460;7.090;2023-05-22T21:06:34;100632.31;;;20.42;66.21
12360;BME280;6244;51.460;7.090;2023-05-22T21:11:31;100633.28;;;20.31;66.21
12360;BME280;6244;51.460;7.090;2023-05-22T21:16:27;100637.06;;;20.29;66.33
12360;BME280;6244;51.460;7.090;2023-05-22T21:21:24;100644.50;;;20.25;66.00
12360;BME280;6244;51.460;7.090;2023-05-22T21:26:21;100650.00;;;20.23;65.68
12360;BME280;6244;51.460;7.090;2023-05-22T21:31:18;100652.50;;;20.15;65.22
12360;BME280;6244;51.460;7.090;2023-05-22T21:36:15;100653.50;;;20.14;65.16
12360;BME280;6244;51.460;7.090;2023-05-22T21:41:11;100650.41;;;20.00;64.99
12360;BME280;6244;51.460;7.090;2023-05-22T21:46:09;100656.72;;;19.99;64.14
12360;BME280;6244;51.460;7.090;2023-05-22T21:51:06;100661.28;;;19.68;65.71
12360;BME280;6244;51.460;7.090;2023-05-22T21:56:02;100665.13;;;19.54;65.92
12360;BME280;6244;51.460;7.090;2023-05-22T22:00:59;100668.38;;;19.57;65.71
12360;BME280;6244;51.460;7.090;2023-05-22T22:05:57;100669.97;;;19.39;65.61
12360;BME280;6244;51.460;7.090;2023-05-22T22:10:54;100670.38;;;19.34;65.63
12360;BME280;6244;51.460;7.090;2023-05-22T22:15:50;100680.66;;;19.18;64.99
12360;BME280;6244;51.460;7.090;2023-05-22T22:20:47;100687.53;;;18.90;65.24
12360;BME280;6244;51.460;7.090;2023-05-22T22:25:49;100678.16;;;18.96;64.41
12360;BME280;6244;51.460;7.090;2023-05-22T22:30:46;100686.06;;;19.07;64.35
12360;BME280;6244;51.460;7.090;2023-05-22T22:35:42;100678.38;;;18.83;65.01
12360;BME280;6244;51.460;7.090;2023-05-22T22:40:40;100683.66;;;18.73;65.33
12360;BME280;6244;51.460;7.090;2023-05-22T22:45:37;100681.38;;;18.69;64.95
12360;BME280;6244;51.460;7.090;2023-05-22T22:50:34;100699.88;;;18.59;65.29
12360;BME280;6244;51.460;7.090;2023-05-22T22:55:31;100695.16;;;18.63;65.36
12360;BME280;6244;51.460;7.090;2023-05-22T23:00:27;100700.59;;;18.61;65.49
12360;BME280;6244;51.460;7.090;2023-05-22T23:05:25;100709.88;;;18.35;66.33
12360;BME280;6244;51.460;7.090;2023-05-22T23:10:22;100713.47;;;18.45;65.77
12360;BME280;6244;51.460;7.090;2023-05-22T23:15:18;100716.69;;;18.28;66.38
12360;BME280;6244;51.460;7.090;2023-05-22T23:20:15;100713.56;;;17.79;67.96
12360;BME280;6244;51.460;7.090;2023-05-22T23:25:13;100710.50;;;17.95;66.66
12360;BME280;6244;51.460;7.090;2023-05-22T23:30:10;100713.72;;;18.10;67.11
12360;BME280;6244;51.460;7.090;2023-05-22T23:35:07;100709.88;;;18.03;67.46
12360;BME280;6244;51.460;7.090;2023-05-22T23:40:06;100713.84;;;18.08;66.77
12360;BME280;6244;51.460;7.090;2023-05-22T23:45:05;100698.56;;;17.67;68.06
12360;BME280;6244;51.460;7.090;2023-05-22T23:50:02;100690.63;;;17.78;67.66
12360;BME280;6244;51.460;7.090;2023-05-22T23:54:59;100700.88;;;17.83;67.53
12360;BME280;6244;51.460;7.090;2023-05-22T23:59:55;100686.59;;;17.95;66.76
